Time;durP1;ratioP1;P1;durP2;ratioP2;P2;SDS_P1;SDS_P2;PMS_P1;PMS_P2;Temp;Humidity;BMP_temperature;BMP_pressure;BME280_temperature;BME280_humidity;BME280_pressure;Samples;Min_cycle;Max_cycle;Signal;HPM_P1;HPM_P2
2022/05/11 00:01:51;;;;;;;15.80;10.65;;;;;;;;;;5008177;28;20088;-80
2022/05/11 00:04:17;;;;;;;14.43;9.95;;;;;;;;;;5022209;28;20151;-80
2022/05/11 00:06:44;;;;;;;19.02;10.98;;;;;;;;;;5022610;28;20453;-80
2022/05/11 00:09:11;;;;;;;16.67;10.60;;;;;;;;;;5023664;28;20022;-79
2022/05/11 00:11:37;;;;;;;16.13;11.18;;;;;;;;;;5015386;28;20045;-79
2022/05/11 00:14:04;;;;;;;18.40;10.55;;;;;;;;;;5015863;28;20026;-80
2022/05/11 00:16:31;;;;;;;17.88;11.60;;;;;;;;;;5015578;28;20052;-79
2022/05/11 00:18:57;;;;;;;19.00;11.75;;;;;;;;;;5022739;28;20543;-79
2022/05/11 00:21:23;;;;;;;15.95;10.23;;;;;;;;;;5024568;28;20022;-80
2022/05/11 00:23:51;;;;;;;18.17;12.20;;;;;;;;;;5026806;28;20029;-80
2022/05/11 00:26:17;;;;;;;17.55;12.25;;;;;;;;;;5012926;28;20473;-80
2022/05/11 00:28:43;;;;;;;19.52;11.70;;;;;;;;;;5014974;28;20030;-79
2022/05/11 00:31:10;;;;;;;19.73;12.50;;;;;;;;;;5022286;28;20504;-80
2022/05/11 00:33:36;;;;;;;18.40;13.02;;;;;;;;;;5019984;28;20481;-79
2022/05/11 00:36:02;;;;;;;20.42;13.07;;;;;;;;;;5016550;28;20426;-79
2022/05/11 00:38:29;;;;;;;19.83;13.45;;;;;;;;;;5014023;28;20033;-80
2022/05/11 00:40:59;;;;;;;18.23;12.73;;;;;;;;;;5023163;28;20036;-80
2022/05/11 00:43:30;;;;;;;21.67;13.50;;;;;;;;;;5015261;28;20038;-80
2022/05/11 00:46:01;;;;;;;22.58;14.30;;;;;;;;;;5020027;28;20025;-79
2022/05/11 00:51:13;;;;;;;25.23;15.20;;;;;;;;;;5019618;28;20129;-79
2022/05/11 00:53:41;;;;;;;27.65;16.67;;;;;;;;;;5020480;28;20033;-79
2022/05/11 00:56:07;;;;;;;29.35;17.38;;;;;;;;;;5031270;28;20032;-80
2022/05/11 00:58:35;;;;;;;26.67;17.92;;;;;;;;;;5019170;28;20156;-80
2022/05/11 01:01:02;;;;;;;32.47;19.58;;;;;;;;;;5027883;28;20025;-80
2022/05/11 01:03:52;;;;;;;31.85;21.13;;;;;;;;;;5024413;28;20034;-80
2022/05/11 01:06:19;;;;;;;35.10;22.70;;;;;;;;;;5019667;28;20041;-80
2022/05/11 01:08:45;;;;;;;35.83;21.77;;;;;;;;;;5022678;28;20022;-80
2022/05/11 01:11:11;;;;;;;39.03;23.17;;;;;;;;;;5015254;28;20345;-80
2022/05/11 01:13:38;;;;;;;35.65;23.73;;;;;;;;;;5018736;28;20018;-80
2022/05/11 01:16:05;;;;;;;37.45;24.25;;;;;;;;;;5019458;28;20081;-79
2022/05/11 01:18:31;;;;;;;38.78;24.65;;;;;;;;;;5018915;28;20080;-80
2022/05/11 01:20:58;;;;;;;39.15;24.80;;;;;;;;;;5017790;28;20060;-79
2022/05/11 01:23:33;;;;;;;40.70;24.70;;;;;;;;;;5030543;28;20022;-80
2022/05/11 01:25:59;;;;;;;35.00;23.10;;;;;;;;;;5016374;28;20108;-79
2022/05/11 01:28:25;;;;;;;37.83;23.15;;;;;;;;;;5018512;28;20392;-80
2022/05/11 01:30:53;;;;;;;36.08;22.77;;;;;;;;;;5018900;28;20037;-78
2022/05/11 01:33:22;;;;;;;37.60;24.77;;;;;;;;;;5020509;28;20026;-80
2022/05/11 01:36:07;;;;;;;37.65;23.73;;;;;;;;;;5024845;28;20025;-80
2022/05/11 01:38:37;;;;;;;37.38;24.02;;;;;;;;;;5016139;28;20021;-80
2022/05/11 01:41:04;;;;;;;34.58;22.70;;;;;;;;;;5030575;28;20045;-79
2022/05/11 01:43:31;;;;;;;33.58;22.23;;;;;;;;;;5018623;28;20040;-80
2022/05/11 01:45:58;;;;;;;35.17;21.73;;;;;;;;;;5018312;28;20025;-79
2022/05/11 01:48:24;;;;;;;30.63;20.98;;;;;;;;;;5018532;28;20547;-78
2022/05/11 01:50:50;;;;;;;29.00;20.05;;;;;;;;;;5018763;28;20087;-80
2022/05/11 01:53:17;;;;;;;29.88;20.42;;;;;;;;;;5014703;28;20026;-80
2022/05/11 01:55:43;;;;;;;30.92;19.65;;;;;;;;;;5020532;28;20033;-80
2022/05/11 01:58:11;;;;;;;32.95;21.15;;;;;;;;;;5027241;28;20080;-80
2022/05/11 02:00:38;;;;;;;35.13;19.95;;;;;;;;;;5022240;28;20022;-79
2022/05/11 02:03:04;;;;;;;33.80;20.52;;;;;;;;;;5020181;28;20029;-79
2022/05/11 02:08:15;;;;;;;33.72;22.55;;;;;;;;;;5015092;28;20106;-80
2022/05/11 02:10:42;;;;;;;35.65;23.48;;;;;;;;;;5020653;28;20038;-79
2022/05/11 02:13:08;;;;;;;33.55;23.02;;;;;;;;;;5026376;28;20025;-80
2022/05/11 02:15:36;;;;;;;33.35;22.45;;;;;;;;;;5022295;28;20424;-79
2022/05/11 02:18:02;;;;;;;33.83;22.85;;;;;;;;;;5017468;28;20079;-78
2022/05/11 02:20:28;;;;;;;34.42;23.20;;;;;;;;;;5029292;28;20030;-79
2022/05/11 02:22:54;;;;;;;33.83;22.90;;;;;;;;;;5015681;28;20018;-79
2022/05/11 02:25:20;;;;;;;31.95;22.48;;;;;;;;;;5026184;28;20441;-79
2022/05/11 02:27:47;;;;;;;37.45;21.95;;;;;;;;;;5021469;28;20018;-79
2022/05/11 02:30:18;;;;;;;34.15;21.75;;;;;;;;;;5019343;28;20038;-80
2022/05/11 02:32:44;;;;;;;30.63;21.30;;;;;;;;;;5017295;28;20021;-80
2022/05/11 02:35:13;;;;;;;32.33;21.02;;;;;;;;;;5013618;28;20548;-79
2022/05/11 02:37:45;;;;;;;32.72;21.15;;;;;;;;;;5016314;28;20040;-80
2022/05/11 02:40:12;;;;;;;31.80;20.60;;;;;;;;;;5027361;28;20299;-80
2022/05/11 02:42:38;;;;;;;30.35;20.33;;;;;;;;;;5023213;28;20034;-80
2022/05/11 02:45:05;;;;;;;33.28;19.33;;;;;;;;;;5023091;28;20030;-80
2022/05/11 02:47:31;;;;;;;33.55;20.10;;;;;;;;;;5029258;28;20030;-80
2022/05/11 02:49:58;;;;;;;29.77;19.00;;;;;;;;;;5014727;28;20445;-80
2022/05/11 02:52:24;;;;;;;27.50;18.00;;;;;;;;;;5016061;28;20052;-79
2022/05/11 02:54:50;;;;;;;33.95;18.55;;;;;;;;;;5016245;28;20034;-79
2022/05/11 02:57:17;;;;;;;33.85;19.15;;;;;;;;;;5017283;28;20082;-79
2022/05/11 02:59:43;;;;;;;25.88;17.02;;;;;;;;;;5015143;28;20045;-80
2022/05/11 03:02:10;;;;;;;27.63;18.05;;;;;;;;;;5015049;28;20092;-80
2022/05/11 03:04:36;;;;;;;28.35;17.38;;;;;;;;;;5020952;28;20021;-80
2022/05/11 03:07:02;;;;;;;30.77;18.00;;;;;;;;;;5018050;28;20030;-80
2022/05/11 03:09:28;;;;;;;29.55;18.10;;;;;;;;;;5017236;28;20026;-80
2022/05/11 03:11:54;;;;;;;29.73;18.67;;;;;;;;;;5017132;28;20041;-80
2022/05/11 03:14:21;;;;;;;31.20;19.27;;;;;;;;;;5013581;28;20443;-79
2022/05/11 03:16:47;;;;;;;29.58;19.15;;;;;;;;;;5015110;28;20058;-79
2022/05/11 03:19:13;;;;;;;32.75;18.27;;;;;;;;;;5016991;28;20077;-79
2022/05/11 03:21:39;;;;;;;29.95;18.48;;;;;;;;;;5017120;28;20034;-79
2022/05/11 03:24:05;;;;;;;31.65;18.17;;;;;;;;;;5015284;28;20434;-79
2022/05/11 03:26:32;;;;;;;29.05;17.90;;;;;;;;;;5014889;28;20112;-80
2022/05/11 03:28:58;;;;;;;33.05;18.80;;;;;;;;;;5013340;28;20121;-79
2022/05/11 03:31:24;;;;;;;30.05;19.48;;;;;;;;;;5026169;28;20033;-79
2022/05/11 03:36:35;;;;;;;33.70;20.17;;;;;;;;;;5021677;28;20091;-79
2022/05/11 03:39:01;;;;;;;31.35;19.33;;;;;;;;;;5016917;28;20473;-79
2022/05/11 03:41:27;;;;;;;30.38;20.00;;;;;;;;;;5014043;28;20033;-80
2022/05/11 03:43:53;;;;;;;31.10;20.20;;;;;;;;;;5014320;28;20032;-80
2022/05/11 03:46:20;;;;;;;30.58;19.50;;;;;;;;;;5016517;28;20030;-79
2022/05/11 03:48:46;;;;;;;30.65;20.33;;;;;;;;;;5015597;28;20485;-80
2022/05/11 03:51:12;;;;;;;28.50;18.92;;;;;;;;;;5018252;28;20041;-80
2022/05/11 03:53:38;;;;;;;26.67;18.52;;;;;;;;;;5027824;28;20029;-79
2022/05/11 03:56:04;;;;;;;26.95;17.65;;;;;;;;;;5026014;28;20050;-80
2022/05/11 03:58:30;;;;;;;27.83;18.50;;;;;;;;;;5020601;28;20021;-80
2022/05/11 04:00:57;;;;;;;26.58;18.60;;;;;;;;;;5016691;28;20026;-80
2022/05/11 04:03:23;;;;;;;28.17;16.85;;;;;;;;;;5016613;28;20022;-80
2022/05/11 04:05:49;;;;;;;31.90;16.88;;;;;;;;;;5016536;28;20029;-80
2022/05/11 04:08:15;;;;;;;22.60;15.35;;;;;;;;;;5013868;28;20087;-80
2022/05/11 04:10:41;;;;;;;27.45;15.50;;;;;;;;;;5027631;28;20037;-80
2022/05/11 04:13:08;;;;;;;22.48;14.95;;;;;;;;;;5024552;28;20025;-79
2022/05/11 04:15:34;;;;;;;25.63;15.57;;;;;;;;;;5021067;28;20054;-80
2022/05/11 04:18:00;;;;;;;26.35;16.55;;;;;;;;;;5014172;28;20178;-80
2022/05/11 04:20:26;;;;;;;25.08;16.52;;;;;;;;;;5029612;28;20064;-80
2022/05/11 04:22:54;;;;;;;26.70;16.58;;;;;;;;;;5015192;28;20052;-80
2022/05/11 04:25:21;;;;;;;28.25;16.48;;;;;;;;;;5016383;28;20033;-80
2022/05/11 04:27:48;;;;;;;27.45;16.45;;;;;;;;;;5020923;28;20076;-80
2022/05/11 04:30:15;;;;;;;27.42;16.15;;;;;;;;;;5021501;28;20068;-80
2022/05/11 04:32:41;;;;;;;26.13;17.90;;;;;;;;;;5016411;28;20405;-79
2022/05/11 04:35:08;;;;;;;24.83;16.88;;;;;;;;;;5015832;28;20037;-79
2022/05/11 04:37:34;;;;;;;24.33;16.25;;;;;;;;;;5019725;28;20021;-79
2022/05/11 04:40:00;;;;;;;28.48;15.80;;;;;;;;;;5022970;28;20075;-79
2022/05/11 04:42:26;;;;;;;25.92;15.88;;;;;;;;;;5025389;28;20443;-79
2022/05/11 04:44:55;;;;;;;26.48;16.02;;;;;;;;;;5019813;28;20395;-79
2022/05/11 04:47:21;;;;;;;24.15;15.55;;;;;;;;;;5017681;28;20060;-79
2022/05/11 04:49:48;;;;;;;26.17;14.90;;;;;;;;;;5030901;28;20465;-79
2022/05/11 04:52:16;;;;;;;23.85;14.80;;;;;;;;;;5028952;28;20107;-79
2022/05/11 04:54:43;;;;;;;23.23;15.02;;;;;;;;;;5023010;28;20069;-79
2022/05/11 04:57:09;;;;;;;25.73;15.30;;;;;;;;;;5019823;28;20042;-79
2022/05/11 04:59:36;;;;;;;21.80;14.73;;;;;;;;;;5020349;28;20017;-80
2022/05/11 05:02:03;;;;;;;25.52;15.45;;;;;;;;;;5016447;28;20053;-80
2022/05/11 05:04:30;;;;;;;23.52;15.23;;;;;;;;;;5019124;28;20026;-79
2022/05/11 05:06:56;;;;;;;23.02;15.73;;;;;;;;;;5019430;28;20492;-80
2022/05/11 05:09:23;;;;;;;26.88;15.93;;;;;;;;;;5021316;28;20022;-80
2022/05/11 05:11:49;;;;;;;25.20;15.90;;;;;;;;;;5029885;28;20116;-79
2022/05/11 05:14:15;;;;;;;22.67;15.75;;;;;;;;;;5015485;28;20396;-72
2022/05/11 05:16:41;;;;;;;22.58;14.82;;;;;;;;;;5018824;28;20049;-73
2022/05/11 05:19:08;;;;;;;24.27;15.98;;;;;;;;;;5027604;28;20021;-73
2022/05/11 05:21:34;;;;;;;22.58;15.27;;;;;;;;;;5019923;28;20105;-73
2022/05/11 05:24:00;;;;;;;23.05;15.10;;;;;;;;;;5016426;28;20040;-73
2022/05/11 05:26:27;;;;;;;22.60;14.60;;;;;;;;;;5030053;28;20088;-73
2022/05/11 05:31:38;;;;;;;28.25;15.95;;;;;;;;;;5032630;28;20056;-73
2022/05/11 05:34:04;;;;;;;27.02;15.50;;;;;;;;;;5022234;28;20031;-73
2022/05/11 05:36:32;;;;;;;27.83;14.55;;;;;;;;;;5024165;28;20026;-73
2022/05/11 05:38:59;;;;;;;22.90;14.40;;;;;;;;;;5020258;28;20706;-73
2022/05/11 05:41:26;;;;;;;23.75;14.50;;;;;;;;;;5020785;28;20085;-73
2022/05/11 05:43:52;;;;;;;27.65;15.27;;;;;;;;;;5016082;28;20025;-73
2022/05/11 05:46:19;;;;;;;23.98;14.05;;;;;;;;;;5022210;28;20024;-73
2022/05/11 05:48:45;;;;;;;23.83;14.10;;;;;;;;;;5016885;28;20479;-73
2022/05/11 05:51:12;;;;;;;21.42;13.10;;;;;;;;;;5017048;28;20088;-73
2022/05/11 05:53:40;;;;;;;25.13;13.63;;;;;;;;;;5017452;28;20569;-73
2022/05/11 05:56:06;;;;;;;19.58;14.48;;;;;;;;;;5026925;28;20045;-73
2022/05/11 05:58:33;;;;;;;24.00;14.70;;;;;;;;;;5031165;28;20469;-73
2022/05/11 06:00:59;;;;;;;26.52;15.63;;;;;;;;;;5026590;28;20605;-73
2022/05/11 06:03:26;;;;;;;25.88;14.60;;;;;;;;;;5029988;28;20120;-73
2022/05/11 06:05:52;;;;;;;29.05;14.80;;;;;;;;;;5024784;28;20040;-73
2022/05/11 06:08:19;;;;;;;24.17;14.35;;;;;;;;;;5014476;28;20026;-73
2022/05/11 06:10:46;;;;;;;20.33;13.73;;;;;;;;;;5024598;28;20038;-74
2022/05/11 06:13:13;;;;;;;29.23;14.77;;;;;;;;;;5017445;28;20378;-73
2022/05/11 06:15:41;;;;;;;28.63;14.95;;;;;;;;;;5022440;28;20128;-73
2022/05/11 06:18:07;;;;;;;24.15;14.32;;;;;;;;;;5024587;28;20204;-73
2022/05/11 06:20:34;;;;;;;22.27;13.98;;;;;;;;;;5022117;28;20439;-72
2022/05/11 06:23:01;;;;;;;20.73;14.18;;;;;;;;;;5014613;28;20025;-73
2022/05/11 06:25:27;;;;;;;22.98;11.90;;;;;;;;;;5026953;28;20381;-72
2022/05/11 06:27:54;;;;;;;23.48;11.32;;;;;;;;;;5026031;28;20026;-72
2022/05/11 06:30:20;;;;;;;25.00;12.05;;;;;;;;;;5025379;28;20601;-71
2022/05/11 06:32:46;;;;;;;19.00;11.95;;;;;;;;;;5017265;28;20036;-72
2022/05/11 06:35:12;;;;;;;22.63;10.88;;;;;;;;;;5028243;28;20534;-71
2022/05/11 06:37:40;;;;;;;18.17;10.98;;;;;;;;;;5029164;28;20052;-71
2022/05/11 06:40:07;;;;;;;19.50;10.80;;;;;;;;;;5017197;28;20076;-71
2022/05/11 06:42:33;;;;;;;18.08;10.63;;;;;;;;;;5021219;28;20026;-71
2022/05/11 06:45:00;;;;;;;23.67;10.95;;;;;;;;;;5027645;28;20042;-71
2022/05/11 06:47:26;;;;;;;20.73;10.85;;;;;;;;;;5026794;28;20030;-72
2022/05/11 06:49:52;;;;;;;20.67;10.82;;;;;;;;;;5025886;28;20045;-72
2022/05/11 06:52:18;;;;;;;18.30;10.82;;;;;;;;;;5026782;28;20056;-72
2022/05/11 07:00:14;;;;;;;20.48;10.80;;;;;;;;;;5021932;28;20037;-71
2022/05/11 07:02:40;;;;;;;19.60;10.73;;;;;;;;;;5016288;28;20026;-71
2022/05/11 07:05:07;;;;;;;19.83;10.85;;;;;;;;;;5012988;28;20033;-71
2022/05/11 07:07:33;;;;;;;19.35;10.70;;;;;;;;;;5017776;28;20374;-71
2022/05/11 07:09:59;;;;;;;19.80;10.63;;;;;;;;;;5019526;28;20096;-71
2022/05/11 07:12:32;;;;;;;19.50;10.48;;;;;;;;;;5021769;28;20030;-71
2022/05/11 07:15:00;;;;;;;21.13;10.57;;;;;;;;;;5017744;28;20042;-71
2022/05/11 07:17:31;;;;;;;17.77;9.48;;;;;;;;;;5027836;28;20068;-71
2022/05/11 07:19:58;;;;;;;26.92;13.65;;;;;;;;;;5023123;28;20424;-72
2022/05/11 07:22:24;;;;;;;19.65;10.82;;;;;;;;;;5012276;28;20045;-71
2022/05/11 07:24:50;;;;;;;21.20;10.07;;;;;;;;;;5013833;28;20100;-71
2022/05/11 07:27:17;;;;;;;26.48;13.02;;;;;;;;;;5014245;28;20049;-72
2022/05/11 07:29:44;;;;;;;20.08;10.00;;;;;;;;;;5016466;28;20044;-72
2022/05/11 07:32:10;;;;;;;24.83;10.35;;;;;;;;;;5024607;28;20053;-71
2022/05/11 07:34:36;;;;;;;26.02;10.30;;;;;;;;;;5011416;28;20365;-71
2022/05/11 07:37:02;;;;;;;18.70;8.77;;;;;;;;;;5012152;28;20377;-72
2022/05/11 07:39:29;;;;;;;26.95;10.07;;;;;;;;;;5011406;28;20079;-70
2022/05/11 07:41:55;;;;;;;19.40;10.32;;;;;;;;;;5020643;28;20524;-72
2022/05/11 07:44:21;;;;;;;26.83;12.23;;;;;;;;;;5016510;28;20084;-72
2022/05/11 07:46:48;;;;;;;23.85;11.07;;;;;;;;;;5018822;28;20026;-74
2022/05/11 07:49:14;;;;;;;26.83;11.30;;;;;;;;;;5026208;28;20025;-74
2022/05/11 07:51:41;;;;;;;20.05;10.52;;;;;;;;;;5018470;28;20125;-74
2022/05/11 07:54:08;;;;;;;24.40;10.10;;;;;;;;;;5020395;28;20802;-74
2022/05/11 08:02:04;;;;;;;21.70;9.70;;;;;;;;;;5012709;28;20033;-74
2022/05/11 08:04:30;;;;;;;23.08;10.68;;;;;;;;;;5026320;28;20033;-74
2022/05/11 08:06:56;;;;;;;21.65;10.02;;;;;;;;;;5023995;28;20440;-74
2022/05/11 08:09:22;;;;;;;20.70;10.65;;;;;;;;;;5023842;28;20030;-75
2022/05/11 08:11:50;;;;;;;20.33;10.73;;;;;;;;;;5026876;28;20053;-74
2022/05/11 08:14:17;;;;;;;22.70;9.40;;;;;;;;;;5011757;28;20052;-74
2022/05/11 08:16:43;;;;;;;17.20;8.60;;;;;;;;;;5015055;28;20520;-74
2022/05/11 08:19:09;;;;;;;23.98;9.93;;;;;;;;;;5015205;28;20442;-74
2022/05/11 08:21:36;;;;;;;23.40;7.82;;;;;;;;;;5015766;28;20026;-74
2022/05/11 08:24:02;;;;;;;19.65;8.80;;;;;;;;;;5017240;28;20028;-74
2022/05/11 08:26:28;;;;;;;18.88;9.05;;;;;;;;;;5012481;28;20022;-74
2022/05/11 08:28:54;;;;;;;25.60;8.93;;;;;;;;;;5012531;28;20026;-74
2022/05/11 08:34:06;;;;;;;19.05;7.65;;;;;;;;;;5015461;28;20040;-74
2022/05/11 08:36:32;;;;;;;23.92;8.60;;;;;;;;;;5015634;28;20040;-74
2022/05/11 08:38:59;;;;;;;21.48;8.30;;;;;;;;;;5013316;28;20026;-74
2022/05/11 08:41:26;;;;;;;13.80;7.65;;;;;;;;;;5027628;28;20480;-74
2022/05/11 08:43:55;;;;;;;18.48;8.30;;;;;;;;;;5026495;28;20113;-74
2022/05/11 08:46:38;;;;;;;20.02;9.38;;;;;;;;;;5018392;28;20486;-74
2022/05/11 08:49:12;;;;;;;17.85;7.90;;;;;;;;;;5023190;28;20092;-74
2022/05/11 08:51:41;;;;;;;23.55;8.30;;;;;;;;;;5017035;28;20037;-74
2022/05/11 08:54:10;;;;;;;18.40;8.57;;;;;;;;;;5015098;28;20037;-74
2022/05/11 08:56:37;;;;;;;21.65;8.30;;;;;;;;;;5013743;28;20091;-74
2022/05/11 08:59:04;;;;;;;15.75;7.05;;;;;;;;;;5013505;28;20109;-75
2022/05/11 09:01:51;;;;;;;21.98;7.20;;;;;;;;;;5011099;28;20493;-72
2022/05/11 09:04:18;;;;;;;24.17;7.05;;;;;;;;;;5023355;28;20033;-71
2022/05/11 09:06:45;;;;;;;19.33;7.38;;;;;;;;;;5017338;28;20041;-71
2022/05/11 09:09:14;;;;;;;21.50;7.32;;;;;;;;;;5019830;28;20053;-72
2022/05/11 09:11:47;;;;;;;13.65;7.15;;;;;;;;;;5029763;28;20043;-71
2022/05/11 09:14:14;;;;;;;19.60;7.20;;;;;;;;;;5025231;28;20454;-70
2022/05/11 09:16:45;;;;;;;18.17;7.00;;;;;;;;;;5020668;28;20058;-70
2022/05/11 09:19:17;;;;;;;22.90;8.02;;;;;;;;;;5027022;28;20033;-70
2022/05/11 09:21:49;;;;;;;16.90;7.57;;;;;;;;;;5026479;28;20053;-71
2022/05/11 09:24:18;;;;;;;13.32;6.30;;;;;;;;;;5027283;28;20021;-70
2022/05/11 09:26:46;;;;;;;19.17;6.63;;;;;;;;;;5020692;28;20030;-71
2022/05/11 09:29:32;;;;;;;19.23;7.63;;;;;;;;;;5029951;28;20042;-70
2022/05/11 09:32:19;;;;;;;23.33;7.03;;;;;;;;;;5028913;28;20040;-70
2022/05/11 09:34:45;;;;;;;16.73;7.88;;;;;;;;;;5030539;28;20029;-70
2022/05/11 09:37:34;;;;;;;14.93;6.40;;;;;;;;;;5016183;28;20073;-70
2022/05/11 09:40:10;;;;;;;19.48;6.80;;;;;;;;;;5018510;28;20033;-71
2022/05/11 09:42:47;;;;;;;18.70;7.10;;;;;;;;;;5018322;28;20037;-70
2022/05/11 09:45:13;;;;;;;16.98;7.30;;;;;;;;;;5017588;28;20030;-70
2022/05/11 09:48:02;;;;;;;23.45;6.80;;;;;;;;;;5029211;28;20087;-70
2022/05/11 09:50:26;;;;;;;17.05;7.00;;;;;;;;;;5014185;28;20496;-70
2022/05/11 09:52:58;;;;;;;17.17;5.90;;;;;;;;;;5015721;28;20113;-70
2022/05/11 09:55:31;;;;;;;16.20;7.07;;;;;;;;;;5028476;28;20025;-71
2022/05/11 09:58:01;;;;;;;18.98;6.85;;;;;;;;;;5025774;28;20029;-70
2022/05/11 10:00:34;;;;;;;21.27;7.43;;;;;;;;;;5025664;28;20028;-71
2022/05/11 10:03:04;;;;;;;14.80;6.22;;;;;;;;;;5020032;28;20030;-71
2022/05/11 10:05:50;;;;;;;17.10;6.03;;;;;;;;;;5029032;28;20037;-71
2022/05/11 10:08:25;;;;;;;15.68;6.45;;;;;;;;;;5013638;28;20055;-70
2022/05/11 10:10:54;;;;;;;16.35;5.88;;;;;;;;;;5028632;28;20041;-71
2022/05/11 10:13:36;;;;;;;14.95;6.15;;;;;;;;;;5027344;28;20033;-71
2022/05/11 10:21:52;;;;;;;19.83;6.30;;;;;;;;;;5018151;28;20072;-71
2022/05/11 10:24:18;;;;;;;14.43;5.88;;;;;;;;;;5017548;28;20223;-71
2022/05/11 10:27:08;;;;;;;21.50;6.05;;;;;;;;;;5018394;28;20018;-73
2022/05/11 10:29:43;;;;;;;16.27;5.97;;;;;;;;;;4974279;28;20442;-72
2022/05/11 10:32:12;;;;;;;19.15;5.80;;;;;;;;;;4983908;28;20537;-71
2022/05/11 10:34:44;;;;;;;12.40;4.97;;;;;;;;;;4980113;28;20047;-74
2022/05/11 10:37:15;;;;;;;17.00;6.00;;;;;;;;;;4988236;28;20033;-74
2022/05/11 10:40:15;;;;;;;16.48;5.88;;;;;;;;;;4987765;28;20022;-71
2022/05/11 10:42:46;;;;;;;14.75;5.53;;;;;;;;;;4987237;28;20109;-71
2022/05/11 10:45:21;;;;;;;16.60;5.32;;;;;;;;;;4987126;28;20045;-71
2022/05/11 10:48:05;;;;;;;13.30;5.20;;;;;;;;;;4988363;28;20117;-71
2022/05/11 10:50:40;;;;;;;14.85;5.32;;;;;;;;;;4986913;28;20038;-71
2022/05/11 10:53:12;;;;;;;12.50;5.40;;;;;;;;;;4988663;28;20576;-70
2022/05/11 10:55:58;;;;;;;17.85;5.47;;;;;;;;;;4990204;28;20026;-71
2022/05/11 10:58:43;;;;;;;17.02;6.28;;;;;;;;;;4950566;29;20281;-71
2022/05/11 11:01:16;;;;;;;12.40;5.13;;;;;;;;;;4945574;29;20139;-71
2022/05/11 11:03:45;;;;;;;15.00;5.18;;;;;;;;;;4943096;29;20027;-71
2022/05/11 11:09:12;;;;;;;16.27;5.65;;;;;;;;;;5004425;28;20509;-72
2022/05/11 11:11:46;;;;;;;13.98;5.03;;;;;;;;;;5005004;28;20048;-71
2022/05/11 11:14:14;;;;;;;13.75;5.20;;;;;;;;;;5007686;28;20044;-71
2022/05/11 11:16:41;;;;;;;13.57;5.00;;;;;;;;;;5003261;28;20107;-73
2022/05/11 11:19:08;;;;;;;12.15;4.97;;;;;;;;;;5003536;28;20030;-72
2022/05/11 11:21:35;;;;;;;15.48;5.10;;;;;;;;;;5002987;28;20088;-70
2022/05/11 11:24:12;;;;;;;11.07;4.55;;;;;;;;;;5004185;28;20022;-72
2022/05/11 11:26:50;;;;;;;12.48;5.18;;;;;;;;;;5005249;28;20459;-71
2022/05/11 11:29:18;;;;;;;15.75;5.45;;;;;;;;;;4996069;28;20036;-70
2022/05/11 11:31:59;;;;;;;14.45;5.32;;;;;;;;;;4998926;28;20092;-70
2022/05/11 11:34:31;;;;;;;14.52;5.35;;;;;;;;;;4992228;28;20040;-70
2022/05/11 11:36:58;;;;;;;12.30;5.38;;;;;;;;;;5015238;28;21198;-70
2022/05/11 11:39:42;;;;;;;12.45;5.10;;;;;;;;;;5019457;28;20040;-70
2022/05/11 11:42:08;;;;;;;14.48;5.15;;;;;;;;;;5013251;28;20080;-70
2022/05/11 11:44:45;;;;;;;19.05;6.13;;;;;;;;;;5022562;28;20022;-70
2022/05/11 11:47:27;;;;;;;18.05;5.25;;;;;;;;;;5007644;28;20026;-70
2022/05/11 11:49:58;;;;;;;10.02;5.15;;;;;;;;;;5020524;28;20037;-70
2022/05/11 11:52:43;;;;;;;18.60;6.22;;;;;;;;;;5019286;28;20141;-70
2022/05/11 11:55:30;;;;;;;13.40;5.30;;;;;;;;;;5012227;28;20423;-70
2022/05/11 11:57:57;;;;;;;12.68;5.32;;;;;;;;;;5014100;28;20493;-70
2022/05/11 12:00:25;;;;;;;14.48;4.93;;;;;;;;;;5021029;28;20021;-70
2022/05/11 12:02:52;;;;;;;18.08;5.38;;;;;;;;;;5023124;28;20025;-70
2022/05/11 12:05:27;;;;;;;16.00;4.88;;;;;;;;;;5009620;28;20026;-70
2022/05/11 12:16:27;;;;;;;13.88;5.15;;;;;;;;;;5026130;28;20083;-71
2022/05/11 12:19:07;;;;;;;15.15;4.90;;;;;;;;;;5022559;28;20781;-71
2022/05/11 12:21:35;;;;;;;14.93;5.70;;;;;;;;;;5020019;28;20033;-70
2022/05/11 12:24:04;;;;;;;19.48;5.30;;;;;;;;;;5018931;28;20034;-71
2022/05/11 12:26:40;;;;;;;13.70;5.20;;;;;;;;;;5006594;28;20460;-71
2022/05/11 12:32:07;;;;;;;16.50;5.45;;;;;;;;;;5018961;28;20187;-70
2022/05/11 12:34:39;;;;;;;16.98;5.03;;;;;;;;;;5008454;28;20022;-70
2022/05/11 12:37:10;;;;;;;10.38;5.30;;;;;;;;;;5009063;28;20038;-70
2022/05/11 12:39:38;;;;;;;18.20;5.47;;;;;;;;;;5012993;28;20036;-70
2022/05/11 12:42:05;;;;;;;14.95;5.28;;;;;;;;;;5016831;28;20045;-70
2022/05/11 12:44:33;;;;;;;15.38;5.30;;;;;;;;;;5023222;28;20396;-71
2022/05/11 12:47:01;;;;;;;15.80;4.85;;;;;;;;;;5020796;28;20018;-70
2022/05/11 12:49:28;;;;;;;13.60;4.50;;;;;;;;;;5023105;28;20514;-70
2022/05/11 12:51:56;;;;;;;16.67;5.88;;;;;;;;;;5021272;28;20175;-70
2022/05/11 12:54:24;;;;;;;15.23;5.50;;;;;;;;;;5021757;28;20026;-70
2022/05/11 12:56:58;;;;;;;14.18;5.50;;;;;;;;;;5018731;28;20032;-71
2022/05/11 12:59:25;;;;;;;15.85;5.38;;;;;;;;;;5012093;28;20033;-71
2022/05/11 13:01:52;;;;;;;15.88;4.70;;;;;;;;;;5023873;28;20032;-71
2022/05/11 13:04:20;;;;;;;11.90;4.85;;;;;;;;;;5015902;28;20045;-70
2022/05/11 13:06:49;;;;;;;13.68;5.10;;;;;;;;;;5015489;28;20451;-71
2022/05/11 13:09:41;;;;;;;13.90;5.47;;;;;;;;;;5014316;28;20025;-70
2022/05/11 13:12:08;;;;;;;16.10;5.68;;;;;;;;;;5013443;28;20431;-71
2022/05/11 13:14:36;;;;;;;13.20;5.20;;;;;;;;;;5012856;28;20029;-71
2022/05/11 13:17:04;;;;;;;16.60;4.97;;;;;;;;;;5027036;28;20025;-70
2022/05/11 13:19:37;;;;;;;15.18;5.75;;;;;;;;;;5014892;28;20037;-71
2022/05/11 13:22:05;;;;;;;13.57;5.15;;;;;;;;;;5021473;28;20025;-71
2022/05/11 13:24:37;;;;;;;13.05;4.78;;;;;;;;;;5020732;28;20033;-71
2022/05/11 13:27:23;;;;;;;14.70;5.07;;;;;;;;;;5014847;28;20029;-70
2022/05/11 13:29:49;;;;;;;16.50;5.32;;;;;;;;;;5024565;28;20030;-70
2022/05/11 13:32:24;;;;;;;16.58;5.20;;;;;;;;;;5021713;28;20048;-70
2022/05/11 13:34:50;;;;;;;15.23;5.30;;;;;;;;;;5020659;28;20088;-70
2022/05/11 13:37:27;;;;;;;14.90;4.95;;;;;;;;;;5014441;28;20022;-71
2022/05/11 13:39:54;;;;;;;13.85;5.75;;;;;;;;;;5017955;28;20408;-70
2022/05/11 13:42:22;;;;;;;12.23;5.00;;;;;;;;;;5016470;28;20454;-71
2022/05/11 13:44:52;;;;;;;16.40;5.60;;;;;;;;;;5021741;28;20025;-71
2022/05/11 13:50:35;;;;;;;15.55;5.43;;;;;;;;;;5026362;28;20043;-70
2022/05/11 13:53:13;;;;;;;18.27;5.68;;;;;;;;;;5011015;28;20026;-69
2022/05/11 13:55:42;;;;;;;16.10;5.35;;;;;;;;;;5013778;28;20033;-70
2022/05/11 13:58:26;;;;;;;18.00;5.30;;;;;;;;;;5022146;28;20480;-70
2022/05/11 14:01:00;;;;;;;20.02;6.47;;;;;;;;;;5016325;28;20080;-71
2022/05/11 14:03:31;;;;;;;17.90;6.03;;;;;;;;;;5017549;28;20038;-70
2022/05/11 14:05:57;;;;;;;12.38;4.93;;;;;;;;;;5016813;28;20029;-69
2022/05/11 14:08:23;;;;;;;15.77;5.05;;;;;;;;;;5011738;28;20083;-70
2022/05/11 14:10:51;;;;;;;16.38;5.80;;;;;;;;;;5015809;28;20034;-69
2022/05/11 14:13:17;;;;;;;15.48;5.57;;;;;;;;;;5018164;28;20397;-70
2022/05/11 14:15:44;;;;;;;17.15;6.20;;;;;;;;;;5017683;28;20378;-70
2022/05/11 14:18:11;;;;;;;18.75;5.40;;;;;;;;;;5020262;28;20377;-70
2022/05/11 14:20:38;;;;;;;18.58;5.90;;;;;;;;;;5031311;28;20112;-70
2022/05/11 14:23:05;;;;;;;18.20;5.22;;;;;;;;;;5017467;28;20040;-70
2022/05/11 14:25:31;;;;;;;14.20;5.10;;;;;;;;;;5017617;28;20026;-70
2022/05/11 14:27:57;;;;;;;18.00;5.35;;;;;;;;;;5016805;28;20401;-70
2022/05/11 14:30:24;;;;;;;18.95;5.00;;;;;;;;;;5017567;28;20037;-71
2022/05/11 14:32:50;;;;;;;19.08;5.22;;;;;;;;;;5014920;28;20415;-70
2022/05/11 14:35:21;;;;;;;17.48;5.35;;;;;;;;;;5015322;28;20496;-68
2022/05/11 14:37:48;;;;;;;19.83;5.63;;;;;;;;;;5028915;28;20018;-70
2022/05/11 14:40:16;;;;;;;19.75;5.15;;;;;;;;;;5026646;28;20075;-69
2022/05/11 14:42:42;;;;;;;16.08;5.30;;;;;;;;;;5019293;28;20136;-69
2022/05/11 14:45:09;;;;;;;20.60;5.97;;;;;;;;;;5025093;28;20025;-69
2022/05/11 14:47:35;;;;;;;19.55;5.53;;;;;;;;;;5024676;28;20025;-70
2022/05/11 14:50:01;;;;;;;14.93;5.07;;;;;;;;;;5017864;28;20036;-69
2022/05/11 14:52:28;;;;;;;27.00;5.85;;;;;;;;;;5016526;28;20038;-70
2022/05/11 14:54:54;;;;;;;17.05;5.10;;;;;;;;;;5019816;28;20100;-71
2022/05/11 15:02:52;;;;;;;17.42;4.60;;;;;;;;;;5028168;28;20036;-70
2022/05/11 15:05:18;;;;;;;21.35;5.28;;;;;;;;;;5025034;28;20109;-70
2022/05/11 15:07:45;;;;;;;19.27;5.55;;;;;;;;;;5027788;28;20034;-69
2022/05/11 15:10:12;;;;;;;20.83;5.72;;;;;;;;;;5020520;28;20072;-70
2022/05/11 15:15:25;;;;;;;16.98;5.30;;;;;;;;;;5017847;28;20103;-69
2022/05/11 15:17:51;;;;;;;21.48;5.30;;;;;;;;;;5029786;28;20078;-70
2022/05/11 15:20:19;;;;;;;16.90;5.15;;;;;;;;;;5028860;28;20032;-70
2022/05/11 15:22:45;;;;;;;21.33;5.03;;;;;;;;;;5016121;28;20032;-69
2022/05/11 15:25:11;;;;;;;20.45;5.72;;;;;;;;;;5016570;28;20116;-70
2022/05/11 15:27:39;;;;;;;21.55;5.60;;;;;;;;;;5021169;28;20121;-70
2022/05/11 15:30:05;;;;;;;20.67;5.07;;;;;;;;;;5027022;28;20033;-70